createdAt,value
2023-01-17T00:01:19.310Z,18.80
2023-01-17T00:04:08.481Z,18.50
2023-01-17T00:07:06.730Z,19.00
2023-01-17T00:09:54.497Z,18.10
2023-01-17T00:12:29.900Z,16.90
2023-01-17T00:15:03.332Z,18.60
2023-01-17T00:17:36.012Z,17.60
2023-01-17T00:20:28.994Z,19.10
2023-01-17T00:23:18.970Z,18.10
2023-01-17T00:26:06.805Z,18.30
2023-01-17T00:28:40.484Z,17.20
2023-01-17T00:31:14.176Z,17.70
2023-01-17T00:33:47.957Z,16.40
2023-01-17T00:36:19.197Z,19.00
2023-01-17T00:38:50.400Z,18.70
2023-01-17T00:41:21.827Z,20.80
2023-01-17T00:44:11.908Z,18.30
2023-01-17T00:47:04.351Z,19.70
2023-01-17T00:49:54.708Z,21.20
2023-01-17T00:52:45.016Z,19.50
2023-01-17T00:55:35.549Z,22.30
2023-01-17T00:58:28.663Z,20.20
2023-01-17T01:01:19.078Z,21.00
2023-01-17T01:04:12.130Z,22.00
2023-01-17T01:07:02.496Z,20.70
2023-01-17T01:09:53.134Z,20.90
2023-01-17T01:15:32.550Z,21.70
2023-01-17T01:21:36.673Z,22.00
2023-01-17T01:24:28.384Z,24.00
2023-01-17T01:27:18.707Z,22.50
2023-01-17T01:30:08.791Z,24.40
2023-01-17T01:32:59.384Z,21.90
2023-01-17T01:38:09.727Z,24.00
2023-01-17T01:40:49.932Z,24.20
2023-01-17T01:43:37.274Z,23.40
2023-01-17T01:46:14.451Z,25.00
2023-01-17T01:48:56.217Z,24.40
2023-01-17T01:51:35.620Z,22.20
2023-01-17T01:54:17.633Z,23.00
2023-01-17T01:56:56.938Z,22.50
2023-01-17T01:59:35.530Z,22.60
2023-01-17T02:02:10.574Z,22.60
2023-01-17T02:04:45.533Z,25.80
2023-01-17T02:07:23.317Z,24.00
2023-01-17T02:09:56.102Z,22.60
2023-01-17T02:12:29.042Z,24.30
2023-01-17T02:15:01.938Z,25.50
2023-01-17T02:17:45.074Z,26.10
2023-01-17T02:20:42.822Z,25.90
2023-01-17T02:23:49.683Z,21.70
2023-01-17T02:26:49.670Z,23.80
2023-01-17T02:30:04.154Z,24.00
2023-01-17T02:32:48.755Z,22.00
2023-01-17T02:35:30.823Z,20.80
2023-01-17T02:38:09.910Z,18.60
2023-01-17T02:40:47.821Z,17.20
2023-01-17T02:43:25.264Z,15.70
2023-01-17T02:46:04.777Z,14.70
2023-01-17T02:48:40.196Z,15.20
2023-01-17T02:51:57.713Z,12.50
2023-01-17T02:55:02.360Z,10.60
2023-01-17T02:57:59.343Z,8.60
2023-01-17T03:00:43.697Z,10.60
2023-01-17T03:03:28.516Z,9.80
2023-01-17T03:06:11.811Z,9.20
2023-01-17T03:08:50.876Z,8.20
2023-01-17T03:11:23.767Z,12.90
2023-01-17T03:13:59.409Z,9.00
2023-01-17T03:16:37.522Z,12.60
2023-01-17T03:19:15.294Z,8.60
2023-01-17T03:21:54.137Z,8.60
2023-01-17T03:24:26.845Z,7.90
2023-01-17T03:26:59.374Z,8.30
2023-01-17T03:29:32.096Z,10.90
2023-01-17T03:32:04.845Z,7.90
2023-01-17T03:34:38.146Z,7.60
2023-01-17T03:37:13.668Z,8.50
2023-01-17T03:39:48.365Z,7.30
2023-01-17T03:42:23.124Z,7.30
2023-01-17T03:44:55.578Z,6.90
2023-01-17T03:47:31.556Z,6.40
2023-01-17T03:50:04.335Z,7.00
2023-01-17T03:52:36.852Z,8.60
2023-01-17T03:55:11.763Z,6.10
2023-01-17T03:57:44.427Z,6.50
2023-01-17T04:00:18.631Z,6.50
2023-01-17T04:02:51.354Z,7.20
2023-01-17T04:05:24.746Z,9.50
2023-01-17T04:07:57.464Z,6.50
2023-01-17T04:10:30.379Z,15.60
2023-01-17T04:13:03.050Z,7.60
2023-01-17T04:15:36.020Z,6.20
2023-01-17T04:18:12.347Z,7.00
2023-01-17T04:20:45.318Z,7.40
2023-01-17T04:23:18.005Z,10.70
2023-01-17T04:25:50.667Z,6.20
2023-01-17T04:28:23.290Z,6.20
2023-01-17T04:30:58.860Z,10.20
2023-01-17T04:33:34.962Z,11.60
2023-01-17T04:36:09.726Z,6.50
2023-01-17T04:38:45.565Z,6.80
2023-01-17T04:41:18.009Z,6.90
2023-01-17T04:43:53.319Z,6.90
2023-01-17T04:46:26.734Z,8.20
2023-01-17T04:48:59.161Z,6.00
2023-01-17T04:51:33.029Z,6.90
2023-01-17T04:54:08.203Z,6.50
2023-01-17T04:56:47.816Z,11.40
2023-01-17T04:59:20.873Z,7.60
2023-01-17T05:01:56.430Z,7.60
2023-01-17T05:04:28.895Z,7.60
2023-01-17T05:07:01.766Z,6.30
2023-01-17T05:09:34.783Z,6.60
2023-01-17T05:12:07.944Z,7.90
2023-01-17T05:14:45.847Z,7.60
2023-01-17T05:17:21.281Z,7.90
2023-01-17T05:19:54.086Z,8.10
2023-01-17T05:22:27.777Z,6.40
2023-01-17T05:25:03.367Z,16.90
2023-01-17T05:27:37.019Z,9.00
2023-01-17T05:30:11.545Z,17.70
2023-01-17T05:32:46.061Z,7.80
2023-01-17T05:35:19.748Z,7.00
2023-01-17T05:37:53.768Z,6.80
2023-01-17T05:40:28.895Z,7.40
2023-01-17T05:43:05.491Z,7.90
2023-01-17T05:45:38.804Z,8.10
2023-01-17T05:48:14.873Z,7.40
2023-01-17T05:50:47.644Z,17.90
2023-01-17T05:53:23.030Z,8.40
2023-01-17T05:55:55.958Z,7.40
2023-01-17T05:58:28.908Z,7.60
2023-01-17T06:01:04.089Z,7.90
2023-01-17T06:03:39.648Z,7.10
2023-01-17T06:06:14.982Z,7.80
2023-01-17T06:08:47.886Z,7.40
2023-01-17T06:11:23.503Z,7.70
2023-01-17T06:13:56.045Z,7.70
2023-01-17T06:16:28.603Z,7.20
2023-01-17T06:19:01.147Z,7.60
2023-01-17T06:21:36.962Z,9.50
2023-01-17T06:24:14.619Z,7.30
2023-01-17T06:26:52.925Z,7.00
2023-01-17T06:29:25.886Z,7.90
2023-01-17T06:32:01.935Z,7.50
2023-01-17T06:34:38.648Z,7.50
2023-01-17T06:37:11.599Z,7.40
2023-01-17T06:39:50.881Z,7.30
2023-01-17T06:42:24.257Z,7.00
2023-01-17T06:45:01.821Z,6.50
2023-01-17T06:47:43.062Z,7.00
2023-01-17T06:50:21.249Z,7.70
2023-01-17T06:53:00.074Z,8.40
2023-01-17T06:55:34.754Z,8.60
2023-01-17T06:58:10.041Z,10.40
2023-01-17T07:00:42.466Z,9.50
2023-01-17T07:03:21.481Z,9.90
2023-01-17T07:05:57.672Z,10.10
2023-01-17T07:08:30.403Z,9.30
2023-01-17T07:11:05.994Z,8.50
2023-01-17T07:13:39.362Z,10.80
2023-01-17T07:16:12.089Z,10.30
2023-01-17T07:18:44.472Z,10.30
2023-01-17T07:21:17.483Z,10.90
2023-01-17T07:23:50.305Z,11.60
2023-01-17T07:26:23.604Z,10.80
2023-01-17T07:28:56.261Z,10.70
2023-01-17T07:31:29.096Z,10.60
2023-01-17T07:34:04.359Z,10.30
2023-01-17T07:36:36.768Z,11.30
2023-01-17T07:39:12.410Z,9.60
2023-01-17T07:41:47.308Z,11.60
2023-01-17T07:44:19.958Z,11.00
2023-01-17T07:46:52.605Z,9.70
2023-01-17T07:49:25.105Z,18.10
2023-01-17T07:51:57.417Z,12.50
2023-01-17T07:54:29.845Z,26.10
2023-01-17T07:57:02.275Z,9.60
2023-01-17T07:59:34.945Z,9.90
2023-01-17T08:02:07.632Z,9.10
2023-01-17T08:04:40.098Z,9.20
2023-01-17T08:07:14.022Z,10.40
2023-01-17T08:09:50.284Z,11.10
2023-01-17T08:12:26.876Z,10.10
2023-01-17T08:14:59.292Z,9.70
2023-01-17T08:17:34.787Z,8.00
2023-01-17T08:20:11.983Z,9.30
2023-01-17T08:22:47.211Z,13.60
2023-01-17T08:25:19.866Z,9.00
2023-01-17T08:27:52.480Z,9.70
2023-01-17T08:30:25.190Z,9.00
2023-01-17T08:33:01.664Z,7.70
2023-01-17T08:35:36.925Z,8.90
2023-01-17T08:38:10.091Z,9.80
2023-01-17T08:40:43.195Z,8.50
2023-01-17T08:43:15.642Z,9.10
2023-01-17T08:45:51.560Z,8.80
2023-01-17T08:48:24.117Z,8.90
2023-01-17T08:50:56.489Z,8.20
2023-01-17T08:53:28.994Z,7.70
2023-01-17T08:56:02.747Z,13.00
2023-01-17T08:58:35.942Z,8.90
2023-01-17T09:01:08.906Z,8.50
2023-01-17T09:03:41.418Z,8.50
2023-01-17T09:06:16.712Z,44.40
2023-01-17T09:08:49.786Z,10.60
2023-01-17T09:11:22.219Z,8.50
2023-01-17T09:13:57.122Z,10.20
2023-01-17T09:16:30.103Z,9.80
2023-01-17T09:19:03.042Z,8.30
2023-01-17T09:21:36.085Z,8.40
2023-01-17T09:24:09.080Z,11.90
2023-01-17T09:26:41.609Z,22.50
2023-01-17T09:29:18.828Z,9.60
2023-01-17T09:31:56.791Z,12.20
2023-01-17T09:34:30.664Z,9.20
2023-01-17T09:37:03.197Z,12.40
2023-01-17T09:39:37.876Z,10.50
2023-01-17T09:42:22.976Z,9.80
2023-01-17T09:44:59.491Z,12.10
2023-01-17T09:47:39.350Z,9.50
2023-01-17T09:50:27.083Z,9.70
2023-01-17T09:53:06.281Z,9.40
2023-01-17T09:55:51.378Z,9.40
2023-01-17T09:58:33.466Z,9.10
2023-01-17T10:01:20.088Z,11.30
2023-01-17T10:04:09.985Z,9.40
2023-01-17T10:07:04.079Z,9.50
2023-01-17T10:09:56.621Z,10.10
2023-01-17T10:12:34.477Z,9.70
2023-01-17T10:15:33.753Z,10.80
2023-01-17T10:18:29.979Z,10.30
2023-01-17T10:21:15.217Z,10.20
2023-01-17T10:24:16.405Z,9.80
2023-01-17T10:26:54.550Z,11.20
2023-01-17T10:29:32.767Z,10.40
2023-01-17T10:32:06.094Z,10.80
2023-01-17T10:34:46.088Z,12.50
2023-01-17T10:37:23.078Z,10.00
2023-01-17T10:39:59.299Z,12.90
2023-01-17T10:42:38.690Z,10.00
2023-01-17T10:45:21.600Z,9.10
2023-01-17T10:48:01.712Z,16.70
2023-01-17T10:50:48.160Z,8.20
2023-01-17T10:53:44.836Z,9.30
2023-01-17T10:56:19.596Z,12.20
2023-01-17T10:58:59.118Z,17.30
2023-01-17T11:01:32.005Z,12.20
2023-01-17T11:04:05.263Z,9.70
2023-01-17T11:06:57.285Z,10.30
2023-01-17T11:09:40.797Z,8.00
2023-01-17T11:12:28.277Z,9.10
2023-01-17T11:15:05.870Z,12.60
2023-01-17T11:17:42.915Z,7.20
2023-01-17T11:20:26.839Z,16.00
2023-01-17T11:23:13.905Z,11.30
2023-01-17T11:25:53.657Z,7.40
2023-01-17T11:28:30.575Z,8.10
2023-01-17T11:31:07.739Z,6.30
2023-01-17T11:33:53.911Z,6.40
2023-01-17T11:36:31.535Z,6.80
2023-01-17T11:39:23.651Z,6.20
2023-01-17T11:41:56.691Z,5.50
2023-01-17T11:44:31.756Z,6.90
2023-01-17T11:47:19.464Z,9.60
2023-01-17T11:49:52.181Z,5.40
2023-01-17T11:52:32.871Z,5.00
2023-01-17T11:55:07.245Z,8.10
2023-01-17T11:57:39.941Z,4.90
2023-01-17T12:00:25.808Z,4.90
2023-01-17T12:03:31.251Z,6.90
2023-01-17T12:06:09.741Z,8.60
2023-01-17T12:08:56.947Z,5.40
2023-01-17T12:12:00.163Z,18.30
2023-01-17T12:14:43.049Z,10.00
2023-01-17T12:17:30.313Z,5.50
2023-01-17T12:20:06.265Z,5.00
2023-01-17T12:23:08.371Z,4.80
2023-01-17T12:25:57.736Z,5.10
2023-01-17T12:29:08.723Z,6.30
2023-01-17T12:31:46.859Z,4.20
2023-01-17T12:34:27.476Z,7.40
2023-01-17T12:37:04.161Z,5.60
2023-01-17T12:39:42.386Z,5.10
2023-01-17T12:42:19.737Z,5.50
2023-01-17T12:44:57.916Z,4.80
2023-01-17T12:47:31.335Z,4.90
2023-01-17T12:50:16.705Z,5.30
2023-01-17T12:52:55.982Z,7.30
2023-01-17T12:55:39.180Z,7.00
2023-01-17T12:58:17.540Z,6.50
2023-01-17T13:00:57.858Z,4.20
2023-01-17T13:03:43.178Z,4.60
2023-01-17T13:06:23.397Z,5.10
2023-01-17T13:09:00.359Z,6.60
2023-01-17T13:11:41.206Z,5.00
2023-01-17T13:14:13.715Z,13.70
2023-01-17T13:16:51.283Z,5.90
2023-01-17T13:19:35.743Z,4.80
2023-01-17T13:22:17.401Z,4.90
2023-01-17T13:24:56.593Z,4.60
2023-01-17T13:27:38.794Z,12.40
2023-01-17T13:30:32.518Z,4.10
2023-01-17T13:33:29.544Z,4.60
2023-01-17T13:36:19.746Z,7.00
2023-01-17T13:39:09.284Z,22.10
2023-01-17T13:41:51.506Z,6.20
2023-01-17T13:44:31.957Z,9.50
2023-01-17T13:47:07.478Z,7.20
2023-01-17T13:49:51.611Z,4.20
2023-01-17T13:52:34.125Z,4.00
2023-01-17T13:55:08.259Z,4.40
2023-01-17T13:57:43.805Z,5.00
2023-01-17T14:00:55.028Z,7.40
2023-01-17T14:04:01.808Z,5.60
2023-01-17T14:06:41.827Z,12.10
2023-01-17T14:09:24.866Z,8.40
2023-01-17T14:12:04.554Z,4.80
2023-01-17T14:14:57.043Z,17.30
2023-01-17T14:17:51.918Z,5.50
2023-01-17T14:21:05.421Z,6.80
2023-01-17T14:24:07.224Z,6.00
2023-01-17T14:26:51.655Z,6.60
2023-01-17T14:30:00.744Z,4.70
2023-01-17T14:32:37.562Z,6.00
2023-01-17T14:35:24.068Z,3.40
2023-01-17T14:37:58.167Z,3.30
2023-01-17T14:40:33.170Z,3.00
2023-01-17T14:43:10.715Z,3.90
2023-01-17T14:45:44.559Z,14.30
2023-01-17T14:48:20.051Z,22.00
2023-01-17T14:50:54.168Z,5.10
2023-01-17T14:53:28.155Z,8.30
2023-01-17T14:56:02.746Z,5.10
2023-01-17T14:58:36.476Z,3.30
2023-01-17T15:01:14.445Z,3.00
2023-01-17T15:03:50.943Z,3.00
2023-01-17T15:06:25.960Z,3.40
2023-01-17T15:09:01.012Z,3.90
2023-01-17T15:11:37.085Z,4.40
2023-01-17T15:14:13.722Z,4.40
2023-01-17T15:16:45.985Z,6.10
2023-01-17T15:19:18.285Z,4.50
2023-01-17T15:21:53.484Z,4.80
2023-01-17T15:24:28.876Z,4.90
2023-01-17T15:27:01.780Z,4.40
2023-01-17T15:29:36.381Z,5.20
2023-01-17T15:32:16.981Z,5.30
2023-01-17T15:37:32.606Z,4.90
2023-01-17T15:40:17.157Z,5.90
2023-01-17T15:42:52.103Z,6.00
2023-01-17T15:45:28.455Z,7.60
2023-01-17T15:48:21.126Z,11.00
2023-01-17T15:51:00.420Z,7.10
2023-01-17T15:53:34.311Z,7.90
2023-01-17T15:56:22.258Z,9.20
2023-01-17T15:58:54.602Z,10.50
2023-01-17T16:01:28.891Z,11.30
2023-01-17T16:04:01.114Z,12.50
2023-01-17T16:06:45.620Z,12.30
2023-01-17T16:09:25.402Z,13.10
2023-01-17T16:11:57.658Z,12.80
2023-01-17T16:14:44.795Z,12.60
2023-01-17T16:17:22.410Z,11.30
2023-01-17T16:19:54.945Z,12.20
2023-01-17T16:22:27.806Z,11.60
2023-01-17T16:25:00.927Z,11.00
2023-01-17T16:27:33.269Z,9.80
2023-01-17T16:30:06.893Z,10.30
2023-01-17T16:32:39.262Z,10.50
2023-01-17T16:35:19.236Z,10.40
2023-01-17T16:37:54.494Z,10.50
2023-01-17T16:40:29.223Z,10.20
2023-01-17T16:43:02.360Z,9.80
2023-01-17T16:45:42.400Z,10.00
2023-01-17T16:48:14.825Z,8.90
2023-01-17T16:50:50.692Z,14.20
2023-01-17T16:53:25.412Z,13.20
2023-01-17T16:56:00.232Z,11.30
2023-01-17T16:58:33.234Z,11.40
2023-01-17T17:01:09.266Z,11.50
2023-01-17T17:03:41.705Z,12.40
2023-01-17T17:06:15.118Z,13.00
2023-01-17T17:08:47.673Z,14.90
2023-01-17T17:11:21.879Z,13.90
2023-01-17T17:13:54.684Z,15.60
2023-01-17T17:16:31.134Z,14.40
2023-01-17T17:19:05.468Z,16.10
2023-01-17T17:21:38.721Z,18.00
2023-01-17T17:24:15.296Z,16.40
2023-01-17T17:26:47.697Z,22.30
2023-01-17T17:29:20.035Z,33.50
2023-01-17T17:31:52.327Z,31.00
2023-01-17T17:34:27.683Z,19.40
2023-01-17T17:37:00.231Z,18.40
2023-01-17T17:39:33.739Z,17.60
2023-01-17T17:42:08.340Z,22.10
2023-01-17T17:44:40.755Z,20.20
2023-01-17T17:47:13.828Z,21.10
2023-01-17T17:49:48.993Z,25.20
2023-01-17T17:52:21.282Z,22.70
2023-01-17T17:54:53.783Z,25.60
2023-01-17T17:57:26.063Z,31.90
2023-01-17T17:59:59.856Z,28.70
2023-01-17T18:02:32.163Z,29.00
2023-01-17T18:05:04.745Z,33.10
2023-01-17T18:07:37.009Z,31.90
2023-01-17T18:10:11.343Z,31.80
2023-01-17T18:12:46.578Z,34.60
2023-01-17T18:15:21.237Z,26.70
2023-01-17T18:17:55.658Z,28.40
2023-01-17T18:20:27.950Z,32.30
2023-01-17T18:23:00.345Z,32.60
2023-01-17T18:25:36.545Z,40.20
2023-01-17T18:28:08.918Z,37.90
2023-01-17T18:30:42.997Z,43.40
2023-01-17T18:33:15.279Z,39.70
2023-01-17T18:35:55.963Z,44.00
2023-01-17T18:38:38.016Z,44.10
2023-01-17T18:41:12.484Z,41.50
2023-01-17T18:43:44.887Z,45.50
2023-01-17T18:46:17.995Z,47.10
2023-01-17T18:48:50.238Z,51.50
2023-01-17T18:51:22.663Z,58.40
2023-01-17T18:53:54.911Z,56.10
2023-01-17T18:56:29.668Z,63.00
2023-01-17T18:59:02.455Z,61.00
2023-01-17T19:01:37.230Z,63.00
2023-01-17T19:04:09.568Z,62.90
2023-01-17T19:06:43.651Z,68.70
2023-01-17T19:09:17.287Z,61.80
2023-01-17T19:11:50.139Z,70.80
2023-01-17T19:14:22.737Z,70.30
2023-01-17T19:16:56.216Z,62.70
2023-01-17T19:19:28.391Z,67.80
2023-01-17T19:22:00.863Z,69.50
2023-01-17T19:24:35.916Z,67.50
2023-01-17T19:27:08.703Z,72.50
2023-01-17T19:29:43.861Z,74.00
2023-01-17T19:32:16.399Z,75.60
2023-01-17T19:34:49.037Z,78.70
2023-01-17T19:37:21.687Z,72.10
2023-01-17T19:39:53.991Z,71.50
2023-01-17T19:42:26.462Z,76.00
2023-01-17T19:44:58.716Z,68.80
2023-01-17T19:47:30.918Z,69.20
2023-01-17T19:50:03.541Z,67.90
2023-01-17T19:52:36.064Z,70.30
2023-01-17T19:55:11.816Z,67.90
2023-01-17T19:57:44.099Z,73.50
2023-01-17T20:00:20.625Z,82.30
2023-01-17T20:02:52.975Z,74.90
2023-01-17T20:05:25.463Z,72.60
2023-01-17T20:07:58.080Z,72.60
2023-01-17T20:10:31.277Z,77.20
2023-01-17T20:13:04.711Z,75.80
2023-01-17T20:15:37.295Z,74.90
2023-01-17T20:18:09.605Z,76.60
2023-01-17T20:20:56.393Z,68.20
2023-01-17T20:23:29.705Z,73.00
2023-01-17T20:26:04.754Z,72.10
2023-01-17T20:28:39.223Z,67.20
2023-01-17T20:31:14.480Z,74.80
2023-01-17T20:33:50.424Z,75.00
2023-01-17T20:36:25.779Z,71.70
2023-01-17T20:38:58.475Z,77.70
2023-01-17T20:41:33.856Z,75.30
2023-01-17T20:44:12.870Z,75.30
2023-01-17T20:46:47.803Z,80.30
2023-01-17T20:49:25.875Z,81.70
2023-01-17T20:52:00.059Z,81.70
2023-01-17T20:54:32.584Z,81.40
2023-01-17T20:57:05.084Z,82.40
2023-01-17T20:59:37.696Z,83.40
2023-01-17T21:02:10.880Z,83.40
2023-01-17T21:04:48.261Z,84.20
2023-01-17T21:07:20.857Z,86.30
2023-01-17T21:09:53.302Z,86.10
2023-01-17T21:12:27.645Z,90.40
2023-01-17T21:15:00.113Z,91.10
2023-01-17T21:17:34.865Z,92.10
2023-01-17T21:20:08.228Z,82.80
2023-01-17T21:22:40.778Z,82.00
2023-01-17T21:25:13.461Z,89.60
2023-01-17T21:27:46.483Z,91.70
2023-01-17T21:30:21.354Z,87.50
2023-01-17T21:32:53.899Z,89.60
2023-01-17T21:35:30.432Z,84.20
2023-01-17T21:38:03.023Z,81.30
2023-01-17T21:40:35.801Z,79.90
2023-01-17T21:43:08.342Z,77.60
2023-01-17T21:45:41.728Z,73.70
2023-01-17T21:48:14.718Z,67.60
2023-01-17T21:50:47.399Z,65.80
2023-01-17T21:53:19.795Z,70.60
2023-01-17T21:56:09.554Z,73.80
2023-01-17T21:58:44.813Z,66.60
2023-01-17T22:01:23.021Z,63.10
2023-01-17T22:04:00.344Z,62.00
2023-01-17T22:06:34.510Z,65.90
2023-01-17T22:09:07.377Z,58.70
2023-01-17T22:11:43.319Z,56.00
2023-01-17T22:14:15.796Z,54.40
2023-01-17T22:16:48.715Z,58.40
2023-01-17T22:19:21.264Z,62.30
2023-01-17T22:21:54.995Z,84.90
2023-01-17T22:24:27.393Z,79.30
2023-01-17T22:26:59.729Z,76.70
2023-01-17T22:29:36.596Z,82.50
2023-01-17T22:32:09.698Z,74.40
2023-01-17T22:34:42.165Z,75.70
2023-01-17T22:37:15.018Z,69.40
2023-01-17T22:39:47.301Z,61.80
2023-01-17T22:42:19.698Z,75.60
2023-01-17T22:44:51.981Z,71.30
2023-01-17T22:47:24.376Z,69.00
2023-01-17T22:49:56.756Z,60.80
2023-01-17T22:52:31.738Z,62.40
2023-01-17T22:55:07.092Z,53.50
2023-01-17T22:57:39.433Z,53.20
2023-01-17T23:00:15.530Z,50.10
2023-01-17T23:02:48.203Z,53.90
2023-01-17T23:05:23.027Z,49.00
2023-01-17T23:07:55.757Z,47.80
2023-01-17T23:10:48.581Z,52.00
2023-01-17T23:13:21.422Z,52.10
2023-01-17T23:16:11.511Z,52.80
2023-01-17T23:19:01.449Z,56.80
2023-01-17T23:21:50.165Z,59.10
2023-01-17T23:24:22.546Z,48.90
2023-01-17T23:27:10.758Z,54.00
2023-01-17T23:29:43.321Z,54.10
2023-01-17T23:32:18.878Z,54.40
2023-01-17T23:34:52.243Z,53.10
2023-01-17T23:37:47.764Z,53.70
2023-01-17T23:40:23.871Z,56.10
2023-01-17T23:43:17.871Z,55.30
2023-01-17T23:45:56.767Z,62.10
2023-01-17T23:48:30.191Z,58.70
2023-01-17T23:51:08.245Z,66.30
2023-01-17T23:53:44.234Z,53.90
2023-01-17T23:56:27.084Z,51.50
2023-01-17T23:59:01.253Z,56.50
